createdAt,value
2023-01-29T00:02:06.663Z,76.40
2023-01-29T00:04:33.437Z,79.90
2023-01-29T00:07:00.244Z,82.60
2023-01-29T00:09:28.223Z,84.50
2023-01-29T00:11:54.998Z,85.40
2023-01-29T00:14:21.816Z,85.10
2023-01-29T00:16:48.678Z,85.90
2023-01-29T00:19:15.431Z,86.00
2023-01-29T00:21:42.110Z,86.70
2023-01-29T00:24:08.881Z,85.90
2023-01-29T00:26:35.689Z,84.90
2023-01-29T00:29:02.721Z,82.00
2023-01-29T00:31:29.855Z,82.30
2023-01-29T00:33:57.230Z,82.90
2023-01-29T00:36:25.454Z,82.20
2023-01-29T00:39:00.597Z,82.80
2023-01-29T00:41:48.970Z,82.80
2023-01-29T00:44:34.461Z,83.40
2023-01-29T00:47:01.718Z,82.80
2023-01-29T00:49:30.242Z,83.20
2023-01-29T00:52:15.493Z,82.90
2023-01-29T00:54:42.217Z,81.20
2023-01-29T00:57:09.041Z,81.10
2023-01-29T00:59:35.778Z,82.20
2023-01-29T01:02:21.185Z,83.80
2023-01-29T01:04:47.951Z,85.10
2023-01-29T01:07:14.705Z,86.60
2023-01-29T01:09:59.890Z,85.90
2023-01-29T01:12:27.710Z,86.60
2023-01-29T01:14:54.476Z,87.40
2023-01-29T01:17:21.238Z,87.10
2023-01-29T01:19:48.018Z,87.50
2023-01-29T01:22:14.750Z,87.70
2023-01-29T01:24:41.502Z,88.40
2023-01-29T01:27:08.457Z,88.90
2023-01-29T01:29:35.223Z,89.20
2023-01-29T01:32:02.359Z,89.10
2023-01-29T01:34:29.300Z,89.50
2023-01-29T01:36:56.461Z,89.30
2023-01-29T01:39:24.486Z,86.70
2023-01-29T01:41:55.336Z,84.50
2023-01-29T01:45:01.359Z,84.60
2023-01-29T01:47:46.786Z,83.30
2023-01-29T01:50:22.651Z,80.90
2023-01-29T01:52:53.093Z,80.10
2023-01-29T01:55:23.070Z,82.20
2023-01-29T01:57:54.869Z,83.80
2023-01-29T02:00:22.124Z,84.80
2023-01-29T02:03:07.289Z,87.30
2023-01-29T02:05:53.746Z,88.40
2023-01-29T02:08:48.354Z,87.50
2023-01-29T02:11:15.165Z,86.70
2023-01-29T02:13:42.727Z,85.10
2023-01-29T02:16:09.427Z,84.00
2023-01-29T02:18:38.145Z,84.50
2023-01-29T02:21:25.315Z,85.00
2023-01-29T02:24:00.423Z,85.20
2023-01-29T02:26:30.852Z,80.80
2023-01-29T02:29:41.581Z,78.50
2023-01-29T02:32:32.759Z,78.70
2023-01-29T02:35:32.025Z,80.00
2023-01-29T02:38:17.962Z,82.30
2023-01-29T02:40:54.132Z,81.70
2023-01-29T02:43:44.131Z,80.60
2023-01-29T02:46:32.444Z,79.30
2023-01-29T02:49:17.079Z,77.50
2023-01-29T02:51:51.709Z,78.70
2023-01-29T02:54:27.681Z,80.00
2023-01-29T02:56:58.576Z,81.70
2023-01-29T02:59:49.559Z,82.20
2023-01-29T03:02:22.070Z,81.60
2023-01-29T03:04:57.039Z,78.10
2023-01-29T03:07:44.616Z,77.70
2023-01-29T03:10:26.322Z,79.10
2023-01-29T03:13:04.032Z,79.70
2023-01-29T03:15:39.007Z,80.00
2023-01-29T03:18:17.499Z,79.30
2023-01-29T03:20:53.626Z,79.40
2023-01-29T03:23:46.868Z,78.90
2023-01-29T03:26:34.991Z,79.50
2023-01-29T03:29:22.426Z,74.70
2023-01-29T03:32:06.923Z,73.60
2023-01-29T03:35:04.025Z,71.30
2023-01-29T03:37:47.347Z,73.60
2023-01-29T03:40:15.860Z,75.40
2023-01-29T03:42:54.703Z,79.30
2023-01-29T03:46:03.486Z,80.80
2023-01-29T03:48:58.104Z,82.40
2023-01-29T03:51:58.369Z,80.70
2023-01-29T03:54:34.176Z,80.70
2023-01-29T03:57:07.529Z,81.70
2023-01-29T04:00:08.176Z,79.80
2023-01-29T04:03:12.603Z,79.10
2023-01-29T04:05:53.048Z,79.60
2023-01-29T04:08:29.148Z,79.20
2023-01-29T04:11:00.170Z,80.60
2023-01-29T04:13:27.601Z,80.60
2023-01-29T04:15:58.084Z,81.70
2023-01-29T04:18:25.501Z,80.80
2023-01-29T04:20:52.779Z,79.50
2023-01-29T04:23:22.127Z,77.40
2023-01-29T04:25:58.859Z,77.00
2023-01-29T04:28:51.136Z,75.40
2023-01-29T04:31:19.731Z,75.40
2023-01-29T04:34:17.810Z,78.00
2023-01-29T04:37:20.604Z,79.90
2023-01-29T04:40:13.988Z,78.30
2023-01-29T04:42:49.560Z,76.70
2023-01-29T04:45:35.586Z,72.30
2023-01-29T04:48:02.272Z,76.00
2023-01-29T04:50:33.033Z,78.80
2023-01-29T04:53:23.804Z,77.70
2023-01-29T04:55:59.233Z,77.10
2023-01-29T04:58:50.814Z,76.60
2023-01-29T05:01:19.941Z,77.50
2023-01-29T05:03:52.186Z,79.00
2023-01-29T05:06:20.398Z,79.20
2023-01-29T05:08:49.045Z,78.40
2023-01-29T05:11:18.078Z,77.70
2023-01-29T05:13:45.654Z,74.30
2023-01-29T05:16:41.952Z,74.00
2023-01-29T05:19:13.971Z,73.00
2023-01-29T05:21:44.156Z,74.50
2023-01-29T05:24:23.154Z,74.00
2023-01-29T05:27:11.315Z,71.90
2023-01-29T05:29:41.085Z,72.20
2023-01-29T05:32:07.781Z,74.10
2023-01-29T05:34:34.645Z,74.90
2023-01-29T05:37:01.572Z,77.00
2023-01-29T05:39:28.444Z,74.30
2023-01-29T05:41:55.200Z,72.80
2023-01-29T05:44:21.983Z,75.10
2023-01-29T05:46:49.781Z,76.20
2023-01-29T05:49:17.949Z,75.40
2023-01-29T05:51:44.723Z,78.00
2023-01-29T05:54:12.633Z,80.50
2023-01-29T05:56:40.175Z,80.20
2023-01-29T05:59:07.369Z,78.50
2023-01-29T06:01:34.160Z,75.20
2023-01-29T06:04:00.858Z,71.90
2023-01-29T06:06:27.707Z,72.00
2023-01-29T06:08:55.462Z,71.00
2023-01-29T06:11:22.198Z,72.60
2023-01-29T06:13:49.201Z,73.00
2023-01-29T06:16:16.003Z,73.10
2023-01-29T06:18:43.359Z,72.50
2023-01-29T06:21:13.024Z,69.00
2023-01-29T06:23:40.133Z,64.30
2023-01-29T06:26:10.742Z,63.80
2023-01-29T06:28:37.508Z,64.70
2023-01-29T06:31:23.380Z,64.40
2023-01-29T06:33:52.707Z,64.60
2023-01-29T06:36:19.435Z,65.60
2023-01-29T06:38:47.231Z,67.10
2023-01-29T06:41:17.728Z,66.20
2023-01-29T06:43:45.538Z,63.80
2023-01-29T06:46:12.350Z,63.30
2023-01-29T06:48:39.325Z,62.50
2023-01-29T06:51:08.420Z,62.20
2023-01-29T06:53:36.632Z,61.90
2023-01-29T06:56:04.348Z,63.10
2023-01-29T06:58:31.235Z,65.30
2023-01-29T07:01:09.776Z,64.20
2023-01-29T07:03:37.248Z,63.90
2023-01-29T07:06:04.846Z,63.50
2023-01-29T07:08:31.559Z,66.00
2023-01-29T07:11:01.789Z,65.60
2023-01-29T07:13:28.875Z,68.10
2023-01-29T07:15:59.851Z,65.50
2023-01-29T07:18:27.432Z,65.30
2023-01-29T07:20:54.683Z,64.30
2023-01-29T07:23:21.740Z,62.50
2023-01-29T07:25:49.876Z,61.20
2023-01-29T07:28:17.866Z,60.60
2023-01-29T07:30:44.825Z,63.10
2023-01-29T07:33:12.946Z,64.70
2023-01-29T07:35:41.982Z,64.30
2023-01-29T07:38:10.813Z,63.30
2023-01-29T07:40:37.731Z,63.70
2023-01-29T07:43:07.096Z,65.30
2023-01-29T07:45:35.748Z,64.80
2023-01-29T07:48:04.241Z,66.30
2023-01-29T07:50:31.829Z,65.30
2023-01-29T07:52:58.763Z,64.80
2023-01-29T07:55:25.599Z,63.70
2023-01-29T07:58:00.138Z,61.00
2023-01-29T08:00:27.955Z,58.30
2023-01-29T08:03:01.258Z,56.00
2023-01-29T08:05:27.964Z,54.40
2023-01-29T08:08:06.031Z,55.40
2023-01-29T08:10:37.498Z,53.10
2023-01-29T08:13:05.472Z,55.40
2023-01-29T08:15:33.566Z,55.30
2023-01-29T08:18:02.259Z,56.50
2023-01-29T08:20:29.268Z,60.20
2023-01-29T08:23:03.670Z,57.80
2023-01-29T08:25:30.756Z,55.60
2023-01-29T08:27:58.410Z,60.00
2023-01-29T08:30:29.940Z,58.50
2023-01-29T08:32:56.818Z,60.50
2023-01-29T08:35:24.036Z,60.20
2023-01-29T08:37:59.483Z,58.30
2023-01-29T08:40:27.945Z,54.10
2023-01-29T08:43:02.981Z,56.50
2023-01-29T08:45:34.956Z,54.70
2023-01-29T08:48:02.448Z,52.00
2023-01-29T08:50:30.739Z,51.40
2023-01-29T08:52:59.531Z,50.30
2023-01-29T08:55:27.093Z,47.80
2023-01-29T08:57:53.889Z,44.30
2023-01-29T09:00:21.156Z,48.00
2023-01-29T09:02:47.920Z,46.00
2023-01-29T09:05:15.558Z,44.60
2023-01-29T09:07:42.364Z,41.10
2023-01-29T09:10:09.715Z,41.10
2023-01-29T09:12:36.401Z,46.70
2023-01-29T09:15:03.930Z,44.70
2023-01-29T09:17:30.746Z,40.60
2023-01-29T09:19:58.676Z,40.00
2023-01-29T09:22:25.482Z,37.10
2023-01-29T09:24:52.297Z,37.90
2023-01-29T09:27:19.023Z,39.60
2023-01-29T09:29:45.751Z,39.60
2023-01-29T09:32:12.643Z,37.30
2023-01-29T09:34:39.421Z,36.10
2023-01-29T09:37:06.612Z,42.30
2023-01-29T09:39:33.841Z,39.60
2023-01-29T09:42:19.646Z,37.40
2023-01-29T09:45:03.799Z,34.40
2023-01-29T09:47:34.469Z,35.80
2023-01-29T09:50:08.032Z,35.20
2023-01-29T09:52:43.130Z,31.00
2023-01-29T09:55:18.678Z,30.70
2023-01-29T09:57:58.215Z,27.50
2023-01-29T10:00:30.634Z,26.40
2023-01-29T10:03:13.946Z,25.00
2023-01-29T10:06:03.900Z,25.50
2023-01-29T10:08:56.858Z,24.40
2023-01-29T10:11:53.677Z,24.50
2023-01-29T10:14:29.439Z,25.00
2023-01-29T10:17:07.818Z,24.90
2023-01-29T10:19:57.542Z,21.70
2023-01-29T10:23:00.318Z,22.70
2023-01-29T10:25:27.549Z,26.30
2023-01-29T10:27:57.199Z,23.40
2023-01-29T10:30:28.586Z,19.20
2023-01-29T10:32:59.481Z,19.80
2023-01-29T10:35:41.317Z,19.00
2023-01-29T10:38:34.074Z,18.90
2023-01-29T10:41:22.328Z,14.80
2023-01-29T10:44:13.823Z,15.60
2023-01-29T10:47:19.760Z,13.70
2023-01-29T10:50:25.572Z,11.10
2023-01-29T10:53:23.131Z,7.70
2023-01-29T10:56:22.788Z,8.70
2023-01-29T10:59:31.899Z,9.10
2023-01-29T11:02:00.269Z,6.00
2023-01-29T11:04:29.650Z,8.00
2023-01-29T11:06:56.548Z,8.60
2023-01-29T11:09:55.251Z,7.60
2023-01-29T11:12:30.821Z,4.60
2023-01-29T11:15:26.570Z,4.40
2023-01-29T11:18:13.594Z,5.50
2023-01-29T11:20:41.991Z,4.80
2023-01-29T11:23:30.407Z,6.50
2023-01-29T11:25:58.639Z,5.80
2023-01-29T11:28:38.828Z,2.30
2023-01-29T11:31:26.186Z,2.40
2023-01-29T11:34:03.054Z,2.90
2023-01-29T11:36:38.200Z,1.00
2023-01-29T11:39:24.695Z,1.00
2023-01-29T11:42:00.400Z,1.00
2023-01-29T11:44:37.046Z,1.00
2023-01-29T11:47:27.761Z,1.00
2023-01-29T11:49:57.131Z,1.00
2023-01-29T11:52:35.046Z,1.00
2023-01-29T11:55:13.832Z,1.00
2023-01-29T11:57:51.048Z,1.00
2023-01-29T12:00:18.292Z,1.00
2023-01-29T12:02:48.432Z,1.00
2023-01-29T12:05:18.623Z,1.00
2023-01-29T12:07:49.080Z,1.00
2023-01-29T12:10:40.896Z,1.00
2023-01-29T12:13:10.846Z,1.00
2023-01-29T12:15:42.306Z,1.00
2023-01-29T12:18:30.553Z,1.00
2023-01-29T12:21:03.580Z,1.00
2023-01-29T12:23:36.636Z,1.00
2023-01-29T12:26:12.853Z,1.00
2023-01-29T12:28:42.872Z,1.00
2023-01-29T12:31:24.154Z,1.00
2023-01-29T12:34:24.742Z,1.00
2023-01-29T12:37:13.625Z,1.00
2023-01-29T12:39:40.446Z,1.00
2023-01-29T12:42:40.573Z,1.00
2023-01-29T12:45:10.975Z,1.00
2023-01-29T12:47:43.974Z,1.00
2023-01-29T12:50:20.113Z,1.00
2023-01-29T12:52:49.494Z,1.00
2023-01-29T12:55:34.704Z,1.00
2023-01-29T12:58:11.102Z,1.00
2023-01-29T13:00:43.495Z,1.00
2023-01-29T13:03:25.262Z,1.00
2023-01-29T13:06:11.636Z,1.00
2023-01-29T13:08:55.584Z,1.00
2023-01-29T13:11:37.003Z,1.00
2023-01-29T13:14:12.602Z,1.00
2023-01-29T13:16:44.209Z,1.00
2023-01-29T13:19:27.534Z,1.00
2023-01-29T13:21:59.285Z,1.00
2023-01-29T13:24:31.481Z,1.00
2023-01-29T13:26:58.206Z,1.00
2023-01-29T13:29:30.111Z,1.00
2023-01-29T13:31:59.317Z,1.00
2023-01-29T13:34:43.945Z,1.00
2023-01-29T13:37:30.990Z,1.00
2023-01-29T13:39:59.601Z,1.00
2023-01-29T13:42:35.123Z,1.00
2023-01-29T13:45:05.243Z,1.00
2023-01-29T13:47:38.595Z,1.00
2023-01-29T13:50:34.715Z,1.00
2023-01-29T13:53:03.430Z,1.00
2023-01-29T13:55:36.025Z,1.00
2023-01-29T13:58:16.573Z,1.00
2023-01-29T14:00:43.239Z,1.00
2023-01-29T14:03:11.761Z,1.00
2023-01-29T14:05:39.964Z,1.00
2023-01-29T14:08:09.458Z,1.00
2023-01-29T14:10:37.848Z,1.00
2023-01-29T14:13:04.506Z,1.00
2023-01-29T14:15:33.023Z,1.00
2023-01-29T14:18:08.990Z,1.00
2023-01-29T14:20:49.623Z,1.00
2023-01-29T14:23:30.572Z,1.00
2023-01-29T14:26:00.763Z,1.00
2023-01-29T14:28:31.204Z,1.00
2023-01-29T14:30:58.365Z,1.00
2023-01-29T14:33:35.278Z,1.00
2023-01-29T14:36:05.910Z,1.00
2023-01-29T14:38:34.007Z,1.00
2023-01-29T14:41:33.309Z,1.00
2023-01-29T14:44:37.705Z,1.00
2023-01-29T14:47:04.862Z,1.00
2023-01-29T14:49:54.636Z,1.00
2023-01-29T14:52:37.534Z,1.00
2023-01-29T14:55:09.857Z,1.00
2023-01-29T14:57:38.737Z,1.00
2023-01-29T15:00:24.112Z,1.00
2023-01-29T15:03:01.353Z,1.00
2023-01-29T15:05:35.903Z,1.00
2023-01-29T15:08:16.198Z,1.00
2023-01-29T15:11:13.962Z,1.00
2023-01-29T15:14:12.853Z,1.00
2023-01-29T15:17:00.539Z,1.00
2023-01-29T15:19:44.654Z,1.00
2023-01-29T15:22:21.773Z,1.00
2023-01-29T15:25:07.351Z,1.00
2023-01-29T15:27:34.422Z,1.00
2023-01-29T15:30:03.770Z,1.00
2023-01-29T15:32:39.152Z,1.00
2023-01-29T15:35:10.020Z,1.00
2023-01-29T15:37:37.377Z,1.00
2023-01-29T15:40:12.173Z,1.00
2023-01-29T15:42:46.526Z,1.00
2023-01-29T15:45:45.729Z,1.00
2023-01-29T15:48:18.220Z,1.00
2023-01-29T15:50:45.767Z,1.00
2023-01-29T15:53:28.774Z,1.00
2023-01-29T15:55:58.141Z,1.00
2023-01-29T15:58:30.236Z,1.00
2023-01-29T16:00:59.040Z,1.00
2023-01-29T16:03:28.357Z,1.00
2023-01-29T16:05:55.803Z,1.00
2023-01-29T16:08:24.815Z,1.20
2023-01-29T16:11:00.707Z,1.60
2023-01-29T16:13:33.595Z,2.20
2023-01-29T16:16:20.812Z,3.10
2023-01-29T16:18:59.517Z,3.70
2023-01-29T16:21:37.483Z,4.00
2023-01-29T16:24:13.903Z,4.90
2023-01-29T16:26:45.283Z,6.20
2023-01-29T16:29:23.766Z,7.20
2023-01-29T16:32:00.599Z,9.40
2023-01-29T16:34:37.860Z,10.30
2023-01-29T16:37:21.199Z,10.80
2023-01-29T16:39:49.165Z,11.80
2023-01-29T16:42:20.041Z,11.90
2023-01-29T16:44:55.718Z,12.80
2023-01-29T16:47:25.345Z,14.40
2023-01-29T16:49:55.110Z,14.80
2023-01-29T16:52:31.492Z,14.80
2023-01-29T16:55:11.494Z,15.80
2023-01-29T16:57:40.258Z,17.30
2023-01-29T17:00:18.360Z,17.40
2023-01-29T17:02:45.271Z,19.60
2023-01-29T17:05:22.254Z,21.30
2023-01-29T17:07:49.609Z,21.40
2023-01-29T17:10:19.383Z,21.60
2023-01-29T17:12:56.271Z,22.10
2023-01-29T17:15:46.004Z,22.50
2023-01-29T17:18:21.454Z,23.50
2023-01-29T17:20:49.329Z,26.00
2023-01-29T17:23:16.434Z,28.20
2023-01-29T17:25:43.867Z,30.00
2023-01-29T17:28:16.170Z,33.90
2023-01-29T17:30:46.441Z,33.50
2023-01-29T17:33:22.606Z,38.10
2023-01-29T17:35:50.229Z,40.80
2023-01-29T17:38:26.029Z,47.00
2023-01-29T17:41:00.017Z,49.00
2023-01-29T17:43:26.961Z,47.20
2023-01-29T17:45:53.757Z,46.50
2023-01-29T17:48:25.958Z,46.50
2023-01-29T17:50:55.290Z,47.00
2023-01-29T17:53:24.866Z,47.50
2023-01-29T17:55:53.371Z,51.80
2023-01-29T17:58:26.784Z,57.90
2023-01-29T18:00:54.767Z,60.30
2023-01-29T18:03:22.505Z,61.10
2023-01-29T18:05:50.344Z,61.20
2023-01-29T18:08:30.707Z,61.20
2023-01-29T18:10:57.734Z,61.80
2023-01-29T18:13:24.890Z,61.20
2023-01-29T18:15:51.684Z,60.40
2023-01-29T18:18:23.750Z,61.00
2023-01-29T18:20:50.922Z,62.10
2023-01-29T18:23:17.784Z,62.50
2023-01-29T18:25:44.828Z,64.10
2023-01-29T18:28:17.956Z,63.90
2023-01-29T18:30:47.176Z,65.30
2023-01-29T18:33:14.789Z,64.70
2023-01-29T18:35:43.173Z,65.60
2023-01-29T18:38:09.903Z,68.50
2023-01-29T18:40:37.348Z,70.60
2023-01-29T18:43:04.244Z,73.60
2023-01-29T18:45:31.542Z,74.30
2023-01-29T18:47:58.486Z,75.00
2023-01-29T18:50:26.412Z,75.50
2023-01-29T18:52:54.304Z,76.30
2023-01-29T18:55:24.471Z,76.50
2023-01-29T18:58:28.591Z,76.10
2023-01-29T19:00:42.195Z,75.80
2023-01-29T19:03:10.040Z,77.20
2023-01-29T19:05:36.750Z,78.00
2023-01-29T19:08:05.223Z,79.00
2023-01-29T19:10:32.479Z,79.80
2023-01-29T19:12:59.317Z,81.20
2023-01-29T19:15:26.127Z,81.30
2023-01-29T19:17:53.201Z,81.70
2023-01-29T19:20:20.218Z,82.00
2023-01-29T19:22:46.953Z,81.80
2023-01-29T19:25:13.766Z,82.10
2023-01-29T19:27:40.608Z,82.60
2023-01-29T19:30:08.617Z,83.50
2023-01-29T19:32:35.523Z,83.60
2023-01-29T19:35:02.284Z,84.50
2023-01-29T19:37:30.895Z,85.70
2023-01-29T19:39:57.652Z,86.30
2023-01-29T19:42:24.481Z,88.90
2023-01-29T19:44:52.344Z,89.80
2023-01-29T19:47:19.284Z,89.90
2023-01-29T19:49:46.166Z,89.50
2023-01-29T19:52:51.153Z,90.30
2023-01-29T19:55:21.050Z,91.00
2023-01-29T19:57:48.393Z,91.50
2023-01-29T20:00:17.433Z,91.90
2023-01-29T20:02:44.392Z,92.00
2023-01-29T20:05:13.115Z,91.90
2023-01-29T20:07:42.446Z,91.80
2023-01-29T20:10:11.562Z,91.70
2023-01-29T20:12:39.141Z,91.70
2023-01-29T20:15:07.268Z,91.80
2023-01-29T20:17:34.177Z,92.00
2023-01-29T20:20:00.981Z,92.10
2023-01-29T20:22:29.241Z,92.20
2023-01-29T20:24:56.220Z,92.20
2023-01-29T20:27:23.111Z,92.20
2023-01-29T20:29:52.466Z,92.20
2023-01-29T20:32:19.296Z,92.20
2023-01-29T20:34:49.715Z,92.20
2023-01-29T20:37:16.458Z,92.20
2023-01-29T20:39:43.181Z,92.20
2023-01-29T20:42:09.947Z,92.20
2023-01-29T20:44:36.961Z,92.20
2023-01-29T20:47:04.404Z,92.10
2023-01-29T20:49:31.785Z,92.20
2023-01-29T20:52:01.382Z,92.20
2023-01-29T20:54:29.988Z,92.20
2023-01-29T20:56:57.170Z,92.20
2023-01-29T20:59:23.953Z,92.20
2023-01-29T21:01:50.784Z,92.20
2023-01-29T21:04:17.662Z,92.20
2023-01-29T21:06:44.469Z,92.20
2023-01-29T21:09:11.275Z,92.10
2023-01-29T21:11:38.095Z,92.00
2023-01-29T21:14:04.982Z,92.00
2023-01-29T21:16:31.819Z,92.00
2023-01-29T21:18:59.344Z,91.90
2023-01-29T21:21:26.735Z,91.90
2023-01-29T21:23:53.900Z,91.70
2023-01-29T21:26:20.975Z,91.80
2023-01-29T21:28:47.857Z,91.70
2023-01-29T21:31:16.831Z,91.80
2023-01-29T21:33:43.923Z,91.80
2023-01-29T21:36:11.309Z,91.70
2023-01-29T21:38:38.723Z,91.70
2023-01-29T21:41:08.955Z,91.70
2023-01-29T21:43:36.246Z,91.90
2023-01-29T21:46:05.092Z,92.00
2023-01-29T21:48:32.094Z,92.20
2023-01-29T21:50:58.919Z,92.20
2023-01-29T21:53:25.724Z,92.30
2023-01-29T21:55:52.394Z,92.30
2023-01-29T21:58:20.616Z,92.40
2023-01-29T22:00:48.803Z,92.50
2023-01-29T22:03:15.933Z,92.40
2023-01-29T22:05:42.777Z,92.40
2023-01-29T22:08:09.886Z,92.40
2023-01-29T22:10:37.627Z,92.40
2023-01-29T22:13:04.627Z,92.30
2023-01-29T22:15:31.495Z,92.20
2023-01-29T22:17:59.549Z,92.20
2023-01-29T22:20:30.228Z,92.20
2023-01-29T22:23:00.561Z,92.10
2023-01-29T22:25:27.884Z,92.10
2023-01-29T22:27:54.656Z,92.00
2023-01-29T22:30:23.288Z,92.00
2023-01-29T22:32:50.655Z,91.90
2023-01-29T22:35:17.839Z,91.80
2023-01-29T22:37:45.139Z,91.80
2023-01-29T22:40:12.990Z,91.80
2023-01-29T22:42:39.987Z,91.90
2023-01-29T22:45:08.057Z,92.00
2023-01-29T22:47:34.825Z,92.00
2023-01-29T22:50:01.687Z,92.00
2023-01-29T22:52:28.418Z,92.10
2023-01-29T22:54:55.218Z,92.00
2023-01-29T22:57:22.195Z,92.00
2023-01-29T22:59:48.935Z,92.00
2023-01-29T23:02:15.624Z,91.90
2023-01-29T23:04:42.479Z,91.90
2023-01-29T23:07:09.372Z,91.80
2023-01-29T23:09:36.049Z,91.90
2023-01-29T23:12:02.787Z,91.90
2023-01-29T23:14:29.541Z,91.80
2023-01-29T23:16:56.320Z,91.80
2023-01-29T23:19:23.092Z,91.90
2023-01-29T23:21:49.810Z,91.80
2023-01-29T23:24:16.843Z,91.90
2023-01-29T23:27:02.031Z,91.80
2023-01-29T23:29:28.722Z,91.90
2023-01-29T23:31:55.485Z,91.90
2023-01-29T23:34:22.391Z,91.80
2023-01-29T23:36:49.374Z,91.90
2023-01-29T23:39:16.839Z,92.00
2023-01-29T23:41:43.900Z,92.00
2023-01-29T23:44:10.720Z,92.00
2023-01-29T23:46:37.494Z,91.90
2023-01-29T23:49:04.538Z,92.00
2023-01-29T23:51:31.342Z,92.00
2023-01-29T23:53:58.284Z,92.00
2023-01-29T23:56:25.109Z,91.90
2023-01-29T23:58:56.128Z,92.00
